Hauptseite
METAR-TAF:

METAR-TAF

Flughäfen :

Flughafen Niamey

Niamey, Niger

Breite: 13-29N, Länge: 002-10E, Höhe: 223 m

Beobachtung

Neuester Wetterbericht von vor 44 Minuten, um 09:00 UTC
Wind 7 kt aus Süd, variierte zwischen Süd/Südost und Süd/Südwest
Temperatur 31°C
Luftfeuchtigkeit 52%
Luftdruck 1014 hPa
Sichtweite: 8000 m
Leicht bewölkt in der Höhe von 2000 ft

METAR: DRRN 190900Z 18007KT 150V210 8000 FEW020 31/20 Q1014 NOSIG

Zeit: 10:44 (09:44 UTC)

Prognose

Neuester Wetterbericht von vor 4 Stunden und 44 Minuten, um 05:00 UTC
Gültige Prognose vom 19 um 06 UTC bis 20 um 12 UTC
Wind 8 kt aus Süd/Südwest
Sichtweite 10 km oder mehr
keine Wolken unter 1500 m und keine Kumulonimbus oder Gewitterwolken

TAF: DRRN 190500Z 1906/2012 20008KT CAVOK

Wetterbeobachtungen und Prognosen von mehr als 4000 Flughäfen (METAR und TAF Bericht).

Die verfügbaren Stationen werden durch gelbe und rote Markierungen auf der Karte dargestellt.

Führen Sie die Maus auf sie, um den Namen der Station zu sehen.

Darauf klicken, um die Beobachtung von Wetterbeobachtungen und Prognosen zu sehen.

Um die Karte zu ändern : klicken Sie auf den grünen Tasten mit einem schwarzen Kreuz Zum Vergrößern, auf den grünen Button mit einem Gedankenstrich zu verkleinern, oder auf die grünen Pfeile für benachbarte Karten.


METAR-TAF: